createdAt,value
2023-03-02T00:00:49.972Z,4.06
2023-03-02T00:01:49.986Z,4.16
2023-03-02T00:02:50.002Z,4.12
2023-03-02T00:03:50.027Z,4.12
2023-03-02T00:04:49.945Z,4.16
2023-03-02T00:05:49.951Z,4.05
2023-03-02T00:06:49.924Z,4.10
2023-03-02T00:07:49.919Z,4.13
2023-03-02T00:08:49.934Z,4.13
2023-03-02T00:09:49.906Z,4.06
2023-03-02T00:10:49.881Z,4.12
2023-03-02T00:11:49.886Z,4.10
2023-03-02T00:12:49.867Z,4.08
2023-03-02T00:13:49.882Z,4.12
2023-03-02T00:14:49.878Z,4.06
2023-03-02T00:15:49.903Z,4.12
2023-03-02T00:16:49.833Z,4.06
2023-03-02T00:17:49.844Z,4.12
2023-03-02T00:18:49.818Z,4.06
2023-03-02T00:19:49.824Z,4.10
2023-03-02T00:20:49.805Z,4.02
2023-03-02T00:21:49.799Z,4.10
2023-03-02T00:22:49.803Z,4.01
2023-03-02T00:23:49.804Z,4.06
2023-03-02T00:24:49.769Z,4.08
2023-03-02T00:25:49.770Z,4.02
2023-03-02T00:26:49.758Z,4.12
2023-03-02T00:27:49.761Z,4.13
2023-03-02T00:28:49.736Z,4.05
2023-03-02T00:29:49.746Z,4.16
2023-03-02T00:30:49.747Z,4.12
2023-03-02T00:31:49.824Z,4.10
2023-03-02T00:32:49.697Z,4.12
2023-03-02T00:33:49.696Z,4.10
2023-03-02T00:34:49.704Z,4.05
2023-03-02T00:35:49.750Z,4.10
2023-03-02T00:36:49.735Z,4.05
2023-03-02T00:37:49.695Z,4.10
2023-03-02T00:38:49.654Z,4.08
2023-03-02T00:39:49.660Z,4.05
2023-03-02T00:40:49.645Z,4.13
2023-03-02T00:41:49.653Z,4.14
2023-03-02T00:42:49.644Z,4.12
2023-03-02T00:43:49.635Z,4.13
2023-03-02T00:44:49.629Z,4.08
2023-03-02T00:45:49.604Z,4.19
2023-03-02T00:46:49.675Z,4.05
2023-03-02T00:47:49.592Z,4.20
2023-03-02T00:48:49.586Z,4.05
2023-03-02T00:49:49.669Z,4.06
2023-03-02T00:50:49.598Z,4.23
2023-03-02T00:51:49.546Z,4.16
2023-03-02T00:52:49.535Z,4.19
2023-03-02T00:53:49.533Z,4.17
2023-03-02T00:54:49.519Z,4.19
2023-03-02T00:55:49.529Z,4.10
2023-03-02T00:56:49.502Z,4.20
2023-03-02T00:57:49.499Z,4.17
2023-03-02T00:58:49.510Z,4.20
2023-03-02T00:59:49.477Z,4.12
2023-03-02T01:00:49.490Z,4.06
2023-03-02T01:01:49.465Z,4.17
2023-03-02T01:02:49.652Z,4.08
2023-03-02T01:03:49.464Z,4.12
2023-03-02T01:04:49.445Z,4.05
2023-03-02T01:05:49.427Z,4.05
2023-03-02T01:06:49.420Z,4.05
2023-03-02T01:07:49.429Z,4.12
2023-03-02T01:08:49.423Z,4.23
2023-03-02T01:09:49.419Z,4.16
2023-03-02T01:10:49.404Z,4.22
2023-03-02T01:11:49.382Z,4.20
2023-03-02T01:12:49.378Z,4.26
2023-03-02T01:13:49.376Z,4.32
2023-03-02T01:14:49.356Z,4.35
2023-03-02T01:15:49.413Z,4.34
2023-03-02T01:16:49.350Z,4.48
2023-03-02T01:17:49.387Z,4.48
2023-03-02T01:18:49.407Z,4.41
2023-03-02T01:19:49.329Z,4.44
2023-03-02T01:20:49.314Z,4.42
2023-03-02T01:21:49.326Z,4.38
2023-03-02T01:22:49.313Z,4.45
2023-03-02T01:23:49.289Z,4.42
2023-03-02T01:24:49.303Z,4.50
2023-03-02T01:25:49.268Z,4.52
2023-03-02T01:26:49.265Z,4.48
2023-03-02T01:27:49.277Z,4.48
2023-03-02T01:28:50.128Z,4.49
2023-03-02T01:29:49.260Z,4.44
2023-03-02T01:30:49.262Z,4.41
2023-03-02T01:31:49.334Z,4.42
2023-03-02T01:32:49.215Z,4.44
2023-03-02T01:33:49.212Z,4.34
2023-03-02T01:34:49.201Z,4.34
2023-03-02T01:35:49.264Z,4.22
2023-03-02T01:36:49.195Z,4.20
2023-03-02T01:37:49.176Z,4.30
2023-03-02T01:38:49.235Z,4.26
2023-03-02T01:39:49.156Z,4.20
2023-03-02T01:40:49.157Z,4.16
2023-03-02T01:41:49.146Z,4.20
2023-03-02T01:42:49.141Z,4.26
2023-03-02T01:43:49.159Z,4.06
2023-03-02T01:44:49.131Z,4.23
2023-03-02T01:45:49.183Z,4.08
2023-03-02T01:46:49.097Z,4.10
2023-03-02T01:47:49.093Z,4.10
2023-03-02T01:48:49.089Z,4.05
2023-03-02T01:49:49.086Z,4.10
2023-03-02T01:50:49.067Z,4.14
2023-03-02T01:51:49.071Z,4.13
2023-03-02T01:52:49.044Z,4.08
2023-03-02T01:53:49.046Z,4.17
2023-03-02T01:54:49.058Z,4.06
2023-03-02T01:55:49.045Z,4.13
2023-03-02T01:56:49.043Z,4.06
2023-03-02T01:57:49.026Z,4.06
2023-03-02T01:58:49.011Z,4.04
2023-03-02T01:59:49.005Z,4.04
2023-03-02T02:00:48.992Z,3.99
2023-03-02T02:01:48.974Z,4.01
2023-03-02T02:02:48.987Z,4.02
2023-03-02T02:03:49.017Z,4.06
2023-03-02T02:04:48.968Z,4.06
2023-03-02T02:05:48.939Z,3.99
2023-03-02T02:06:48.929Z,4.05
2023-03-02T02:07:48.931Z,4.04
2023-03-02T02:08:48.913Z,3.94
2023-03-02T02:09:48.909Z,3.95
2023-03-02T02:10:48.900Z,3.88
2023-03-02T02:11:48.900Z,3.84
2023-03-02T02:12:48.888Z,3.94
2023-03-02T02:13:48.915Z,3.78
2023-03-02T02:14:48.859Z,3.86
2023-03-02T02:15:48.859Z,3.80
2023-03-02T02:16:48.886Z,3.81
2023-03-02T02:17:48.860Z,3.83
2023-03-02T02:18:48.824Z,3.81
2023-03-02T02:19:48.818Z,3.80
2023-03-02T02:20:48.815Z,3.83
2023-03-02T02:21:48.817Z,3.77
2023-03-02T02:22:48.799Z,3.74
2023-03-02T02:23:48.793Z,3.73
2023-03-02T02:24:48.784Z,3.77
2023-03-02T02:25:48.763Z,3.76
2023-03-02T02:26:48.789Z,3.74
2023-03-02T02:27:48.762Z,3.68
2023-03-02T02:28:48.790Z,3.68
2023-03-02T02:29:48.748Z,3.73
2023-03-02T02:30:48.747Z,3.70
2023-03-02T02:31:48.794Z,3.62
2023-03-02T02:32:48.789Z,3.70
2023-03-02T02:33:48.705Z,3.73
2023-03-02T02:34:48.712Z,3.69
2023-03-02T02:35:48.723Z,3.66
2023-03-02T02:36:48.696Z,3.66
2023-03-02T02:37:48.695Z,3.68
2023-03-02T02:38:48.656Z,3.66
2023-03-02T02:39:48.666Z,3.63
2023-03-02T02:40:48.669Z,3.59
2023-03-02T02:41:48.633Z,3.68
2023-03-02T02:42:48.637Z,3.65
2023-03-02T02:43:48.624Z,3.59
2023-03-02T02:44:48.613Z,3.66
2023-03-02T02:45:48.611Z,3.65
2023-03-02T02:46:48.633Z,3.65
2023-03-02T02:47:48.584Z,3.63
2023-03-02T02:48:48.638Z,3.63
2023-03-02T02:49:48.571Z,3.62
2023-03-02T02:50:48.571Z,3.53
2023-03-02T02:51:48.556Z,3.51
2023-03-02T02:52:48.550Z,3.51
2023-03-02T02:53:48.566Z,3.65
2023-03-02T02:54:48.520Z,3.59
2023-03-02T02:55:48.513Z,3.58
2023-03-02T02:56:48.507Z,3.51
2023-03-02T02:57:48.506Z,3.51
2023-03-02T02:58:48.505Z,3.58
2023-03-02T02:59:48.494Z,3.51
2023-03-02T03:00:48.504Z,3.51
2023-03-02T03:01:48.461Z,3.58
2023-03-02T03:02:48.459Z,3.50
2023-03-02T03:03:48.441Z,3.50
2023-03-02T03:04:48.454Z,3.50
2023-03-02T03:05:48.429Z,3.55
2023-03-02T03:06:48.425Z,3.50
2023-03-02T03:07:48.404Z,3.53
2023-03-02T03:08:48.432Z,3.53
2023-03-02T03:09:48.514Z,3.56
2023-03-02T03:10:48.388Z,3.48
2023-03-02T03:11:48.393Z,3.53
2023-03-02T03:12:48.391Z,3.51
2023-03-02T03:13:48.356Z,3.50
2023-03-02T03:14:48.357Z,3.51
2023-03-02T03:15:48.340Z,3.48
2023-03-02T03:16:48.400Z,3.44
2023-03-02T03:17:48.335Z,3.58
2023-03-02T03:18:48.326Z,3.42
2023-03-02T03:19:48.312Z,3.44
2023-03-02T03:20:48.312Z,3.42
2023-03-02T03:21:48.277Z,3.41
2023-03-02T03:22:48.273Z,3.36
2023-03-02T03:23:48.284Z,3.37
2023-03-02T03:24:48.275Z,3.29
2023-03-02T03:25:48.259Z,3.34
2023-03-02T03:26:48.250Z,3.29
2023-03-02T03:27:48.225Z,3.26
2023-03-02T03:28:48.225Z,3.36
2023-03-02T03:29:48.432Z,3.26
2023-03-02T03:30:48.266Z,3.22
2023-03-02T03:31:48.207Z,3.31
2023-03-02T03:32:48.193Z,3.25
2023-03-02T03:33:48.203Z,3.23
2023-03-02T03:34:48.165Z,3.23
2023-03-02T03:35:48.199Z,3.28
2023-03-02T03:36:48.170Z,3.26
2023-03-02T03:37:48.136Z,3.25
2023-03-02T03:38:48.181Z,3.28
2023-03-02T03:39:48.153Z,3.26
2023-03-02T03:40:48.144Z,3.25
2023-03-02T03:41:48.111Z,3.26
2023-03-02T03:42:48.091Z,3.26
2023-03-02T03:43:48.085Z,3.22
2023-03-02T03:44:48.080Z,3.19
2023-03-02T03:45:48.088Z,3.22
2023-03-02T03:46:48.066Z,3.23
2023-03-02T03:47:48.040Z,3.23
2023-03-02T03:48:48.047Z,3.21
2023-03-02T03:49:48.050Z,3.23
2023-03-02T03:50:48.043Z,3.23
2023-03-02T03:51:48.015Z,3.21
2023-03-02T03:52:48.010Z,3.22
2023-03-02T03:53:47.985Z,3.23
2023-03-02T03:54:47.988Z,3.18
2023-03-02T03:55:47.978Z,3.10
2023-03-02T03:56:47.989Z,3.18
2023-03-02T03:57:48.001Z,3.19
2023-03-02T03:58:47.996Z,3.19
2023-03-02T03:59:47.969Z,3.16
2023-03-02T04:00:47.948Z,3.10
2023-03-02T04:01:48.020Z,3.11
2023-03-02T04:02:47.957Z,3.10
2023-03-02T04:03:47.924Z,3.05
2023-03-02T04:04:47.920Z,3.16
2023-03-02T04:05:47.913Z,3.22
2023-03-02T04:06:47.881Z,3.08
2023-03-02T04:07:47.886Z,3.16
2023-03-02T04:08:47.873Z,3.07
2023-03-02T04:09:47.870Z,3.19
2023-03-02T04:10:47.854Z,3.08
2023-03-02T04:11:47.849Z,3.13
2023-03-02T04:12:47.825Z,3.16
2023-03-02T04:13:47.814Z,3.13
2023-03-02T04:14:47.811Z,3.16
2023-03-02T04:15:47.798Z,3.14
2023-03-02T04:16:47.801Z,3.11
2023-03-02T04:17:47.775Z,3.10
2023-03-02T04:18:47.769Z,3.08
2023-03-02T04:19:47.770Z,3.14
2023-03-02T04:20:47.752Z,3.11
2023-03-02T04:21:47.741Z,3.11
2023-03-02T04:22:47.736Z,3.08
2023-03-02T04:23:47.728Z,3.16
2023-03-02T04:24:47.722Z,3.05
2023-03-02T04:25:47.700Z,3.05
2023-03-02T04:26:47.712Z,3.08
2023-03-02T04:27:47.690Z,3.04
2023-03-02T04:28:47.752Z,3.13
2023-03-02T04:29:47.685Z,3.13
2023-03-02T04:30:47.706Z,3.10
2023-03-02T04:31:47.662Z,3.13
2023-03-02T04:32:47.649Z,3.05
2023-03-02T04:33:47.653Z,3.11
2023-03-02T04:34:47.644Z,3.05
2023-03-02T04:35:47.717Z,3.11
2023-03-02T04:36:54.793Z,3.11
2023-03-02T04:38:51.632Z,3.10
2023-03-02T04:39:51.632Z,3.05
2023-03-02T04:41:55.587Z,3.00
2023-03-02T04:42:55.569Z,3.10
2023-03-02T04:44:59.596Z,3.08
2023-03-02T04:45:59.635Z,3.05
2023-03-02T04:47:52.440Z,2.93
2023-03-02T04:48:52.423Z,2.98
2023-03-02T04:50:56.519Z,3.07
2023-03-02T04:51:56.477Z,3.03
2023-03-02T04:54:00.373Z,3.10
2023-03-02T04:55:00.353Z,3.13
2023-03-02T04:57:04.393Z,3.10
2023-03-02T04:58:04.370Z,3.04
2023-03-02T05:00:08.323Z,3.03
2023-03-02T05:01:08.320Z,3.18
2023-03-02T05:03:12.320Z,3.16
2023-03-02T05:04:12.291Z,3.05
2023-03-02T05:06:05.192Z,3.04
2023-03-02T05:07:05.199Z,3.03
2023-03-02T05:09:09.276Z,3.13
2023-03-02T05:10:09.179Z,3.21
2023-03-02T05:12:13.186Z,3.23
2023-03-02T05:13:13.167Z,3.19
2023-03-02T05:15:17.145Z,3.13
2023-03-02T05:16:17.138Z,3.13
2023-03-02T05:17:17.090Z,3.21
2023-03-02T05:18:17.088Z,3.13
2023-03-02T05:19:17.091Z,3.11
2023-03-02T05:20:17.074Z,3.14
2023-03-02T05:21:17.065Z,3.11
2023-03-02T05:22:17.053Z,3.16
2023-03-02T05:23:17.069Z,3.14
2023-03-02T05:24:17.039Z,3.19
2023-03-02T05:25:17.030Z,3.14
2023-03-02T05:26:17.019Z,3.14
2023-03-02T05:27:17.004Z,3.16
2023-03-02T05:28:17.044Z,3.11
2023-03-02T05:29:17.001Z,3.19
2023-03-02T05:30:16.984Z,3.11
2023-03-02T05:31:17.041Z,3.21
2023-03-02T05:32:16.981Z,3.26
2023-03-02T05:33:16.960Z,3.23
2023-03-02T05:34:16.948Z,3.25
2023-03-02T05:35:16.964Z,3.31
2023-03-02T05:36:19.302Z,3.22
2023-03-02T05:37:16.929Z,3.31
2023-03-02T05:38:16.924Z,3.34
2023-03-02T05:39:16.912Z,3.25
2023-03-02T05:40:16.898Z,3.31
2023-03-02T05:41:16.905Z,3.26
2023-03-02T05:42:16.924Z,3.19
2023-03-02T05:43:16.867Z,3.19
2023-03-02T05:44:16.883Z,3.07
2023-03-02T05:45:16.850Z,3.18
2023-03-02T05:46:16.986Z,3.16
2023-03-02T05:47:16.909Z,3.04
2023-03-02T05:48:16.822Z,3.11
2023-03-02T05:49:16.819Z,3.13
2023-03-02T05:50:16.825Z,3.14
2023-03-02T05:51:16.793Z,3.13
2023-03-02T05:52:16.785Z,3.11
2023-03-02T05:53:16.773Z,3.08
2023-03-02T05:54:16.772Z,3.16
2023-03-02T05:55:16.839Z,3.13
2023-03-02T05:56:16.751Z,3.16
2023-03-02T05:57:16.739Z,3.21
2023-03-02T05:58:16.733Z,3.23
2023-03-02T05:59:16.717Z,3.16
2023-03-02T06:00:16.710Z,3.32
2023-03-02T06:01:16.791Z,3.28
2023-03-02T06:02:16.797Z,3.23
2023-03-02T06:03:16.799Z,3.29
2023-03-02T06:04:16.689Z,3.28
2023-03-02T06:05:16.660Z,3.37
2023-03-02T06:06:16.662Z,3.42
2023-03-02T06:07:16.651Z,3.36
2023-03-02T06:08:16.640Z,3.34
2023-03-02T06:09:16.630Z,3.40
2023-03-02T06:10:16.617Z,3.47
2023-03-02T06:11:16.639Z,3.47
2023-03-02T06:12:16.617Z,3.51
2023-03-02T06:13:16.609Z,3.48
2023-03-02T06:14:16.586Z,3.40
2023-03-02T06:15:16.571Z,3.59
2023-03-02T06:16:16.611Z,3.59
2023-03-02T06:17:16.608Z,3.51
2023-03-02T06:18:16.599Z,3.53
2023-03-02T06:19:16.541Z,3.48
2023-03-02T06:20:16.560Z,3.50
2023-03-02T06:21:16.540Z,3.41
2023-03-02T06:22:16.566Z,3.55
2023-03-02T06:23:16.520Z,3.51
2023-03-02T06:24:16.527Z,3.41
2023-03-02T06:25:16.527Z,3.41
2023-03-02T06:26:16.495Z,3.42
2023-03-02T06:27:16.464Z,3.37
2023-03-02T06:28:16.465Z,3.37
2023-03-02T06:29:16.453Z,3.34
2023-03-02T06:30:16.489Z,3.40
2023-03-02T06:31:16.491Z,3.36
2023-03-02T06:32:16.578Z,3.34
2023-03-02T06:33:16.421Z,3.31
2023-03-02T06:34:16.408Z,3.28
2023-03-02T06:35:16.610Z,3.22
2023-03-02T06:36:16.493Z,3.23
2023-03-02T06:37:16.432Z,3.22
2023-03-02T06:38:16.387Z,3.26
2023-03-02T06:39:16.381Z,3.23
2023-03-02T06:40:16.357Z,3.18
2023-03-02T06:41:16.364Z,3.28
2023-03-02T06:42:16.355Z,3.23
2023-03-02T06:43:16.349Z,3.25
2023-03-02T06:44:16.337Z,3.26
2023-03-02T06:45:16.328Z,3.31
2023-03-02T06:46:16.384Z,3.32
2023-03-02T06:47:16.299Z,3.34
2023-03-02T06:48:16.298Z,3.37
2023-03-02T06:49:16.310Z,3.37
2023-03-02T06:50:16.328Z,3.31
2023-03-02T06:51:16.395Z,3.31
2023-03-02T06:52:16.327Z,3.32
2023-03-02T06:53:16.250Z,3.36
2023-03-02T06:54:16.282Z,3.34
2023-03-02T06:55:16.245Z,3.37
2023-03-02T06:56:16.239Z,3.28
2023-03-02T06:57:16.252Z,3.26
2023-03-02T06:58:16.221Z,3.45
2023-03-02T06:59:16.197Z,3.34
2023-03-02T07:00:16.206Z,3.37
2023-03-02T07:01:16.224Z,3.36
2023-03-02T07:02:16.198Z,3.48
2023-03-02T07:03:16.234Z,3.45
2023-03-02T07:04:16.190Z,3.40
2023-03-02T07:05:16.157Z,3.44
2023-03-02T07:06:16.135Z,3.44
2023-03-02T07:07:16.158Z,3.50
2023-03-02T07:08:16.125Z,3.50
2023-03-02T07:09:16.114Z,3.51
2023-03-02T07:10:16.109Z,3.53
2023-03-02T07:11:16.128Z,3.48
2023-03-02T07:12:16.079Z,3.50
2023-03-02T07:13:16.080Z,3.50
2023-03-02T07:14:16.067Z,3.53
2023-03-02T07:15:16.067Z,3.51
2023-03-02T07:16:16.244Z,3.50
2023-03-02T07:17:16.035Z,3.62
2023-03-02T07:18:16.032Z,3.92
2023-03-02T07:19:16.021Z,4.23
2023-03-02T07:20:16.006Z,4.68
2023-03-02T07:21:16.008Z,4.87
2023-03-02T07:22:16.012Z,5.18
2023-03-02T07:23:16.029Z,5.46
2023-03-02T07:24:15.993Z,5.48
2023-03-02T07:25:15.979Z,5.66
2023-03-02T07:26:15.971Z,5.71
2023-03-02T07:27:15.947Z,5.86
2023-03-02T07:28:15.965Z,6.02
2023-03-02T07:29:15.943Z,6.14
2023-03-02T07:30:15.936Z,6.19
2023-03-02T07:31:16.057Z,6.41
2023-03-02T07:32:15.974Z,6.51
2023-03-02T07:33:15.969Z,6.59
2023-03-02T07:34:15.904Z,6.78
2023-03-02T07:35:15.941Z,6.85
2023-03-02T07:36:15.961Z,7.10
2023-03-02T07:37:15.958Z,7.21
2023-03-02T07:38:15.992Z,7.06
2023-03-02T07:39:15.948Z,6.81
2023-03-02T07:40:15.892Z,6.63
2023-03-02T07:41:15.853Z,6.20
2023-03-02T07:42:15.952Z,5.93
2023-03-02T07:43:15.891Z,5.71
2023-03-02T07:44:15.864Z,5.36
2023-03-02T07:45:15.824Z,5.26
2023-03-02T07:46:15.850Z,4.97
2023-03-02T07:47:15.820Z,4.73
2023-03-02T07:48:15.823Z,4.70
2023-03-02T07:49:15.804Z,4.68
2023-03-02T07:50:15.791Z,4.53
2023-03-02T07:51:15.795Z,4.49
2023-03-02T07:52:15.797Z,4.42
2023-03-02T07:53:15.765Z,4.48
2023-03-02T07:54:15.845Z,4.52
2023-03-02T07:55:15.775Z,4.53
2023-03-02T07:56:15.745Z,4.67
2023-03-02T07:57:15.747Z,4.70
2023-03-02T07:58:15.762Z,4.77
2023-03-02T07:59:15.769Z,4.77
2023-03-02T08:00:15.753Z,4.74
2023-03-02T08:01:15.720Z,4.70
2023-03-02T08:02:15.711Z,4.67
2023-03-02T08:03:15.788Z,4.63
2023-03-02T08:04:15.714Z,4.56
2023-03-02T08:05:15.722Z,4.41
2023-03-02T08:06:15.697Z,4.22
2023-03-02T08:07:15.737Z,4.22
2023-03-02T08:08:15.723Z,4.06
2023-03-02T08:09:16.950Z,4.05
2023-03-02T08:10:15.671Z,3.91
2023-03-02T08:11:15.684Z,3.80
2023-03-02T08:12:15.664Z,3.76
2023-03-02T08:13:15.691Z,3.68
2023-03-02T08:14:15.668Z,3.60
2023-03-02T08:15:15.678Z,3.60
2023-03-02T08:16:15.812Z,3.59
2023-03-02T08:17:15.641Z,3.63
2023-03-02T08:18:15.632Z,3.58
2023-03-02T08:19:15.620Z,3.59
2023-03-02T08:20:15.627Z,3.60
2023-03-02T08:21:15.599Z,3.63
2023-03-02T08:22:15.613Z,3.55
2023-03-02T08:23:15.604Z,3.59
2023-03-02T08:24:15.574Z,3.66
2023-03-02T08:25:15.577Z,3.65
2023-03-02T08:26:17.500Z,3.63
2023-03-02T08:27:15.572Z,3.59
2023-03-02T08:28:15.555Z,3.69
2023-03-02T08:29:15.569Z,3.70
2023-03-02T08:30:15.557Z,3.78
2023-03-02T08:31:15.599Z,3.80
2023-03-02T08:32:15.573Z,3.74
2023-03-02T08:33:15.541Z,3.70
2023-03-02T08:34:15.513Z,3.69
2023-03-02T08:35:15.502Z,3.73
2023-03-02T08:36:15.509Z,3.63
2023-03-02T08:37:15.505Z,3.65
2023-03-02T08:38:15.494Z,3.62
2023-03-02T08:39:15.530Z,3.59
2023-03-02T08:40:15.484Z,3.65
2023-03-02T08:41:15.480Z,3.65
2023-03-02T08:42:15.462Z,3.65
2023-03-02T08:43:15.452Z,3.65
2023-03-02T08:44:15.452Z,3.66
2023-03-02T08:45:15.443Z,3.63
2023-03-02T08:46:15.494Z,3.65
2023-03-02T08:47:15.421Z,3.60
2023-03-02T08:48:15.411Z,3.65
2023-03-02T08:49:15.442Z,3.70
2023-03-02T08:50:15.401Z,3.69
2023-03-02T08:51:15.417Z,3.70
2023-03-02T08:52:15.579Z,3.65
2023-03-02T08:53:15.378Z,3.60
2023-03-02T08:54:15.367Z,3.62
2023-03-02T08:55:15.521Z,3.59
2023-03-02T08:56:15.356Z,3.62
2023-03-02T08:57:15.359Z,3.58
2023-03-02T08:58:15.344Z,3.63
2023-03-02T08:59:15.363Z,3.69
2023-03-02T09:00:15.354Z,3.62
2023-03-02T09:01:15.374Z,3.69
2023-03-02T09:02:15.344Z,3.68
2023-03-02T09:03:15.307Z,3.63
2023-03-02T09:04:15.426Z,3.62
2023-03-02T09:05:15.299Z,3.62
2023-03-02T09:06:15.314Z,3.63
2023-03-02T09:07:16.592Z,3.68
2023-03-02T09:08:15.275Z,3.65
2023-03-02T09:09:15.288Z,3.69
2023-03-02T09:10:15.281Z,3.73
2023-03-02T09:11:15.257Z,3.80
2023-03-02T09:12:15.263Z,3.78
2023-03-02T09:13:15.246Z,3.80
2023-03-02T09:14:15.245Z,3.91
2023-03-02T09:15:15.449Z,3.83
2023-03-02T09:16:15.241Z,3.88
2023-03-02T09:17:15.232Z,3.92
2023-03-02T09:18:15.330Z,3.94
2023-03-02T09:19:15.385Z,3.95
2023-03-02T09:20:15.200Z,3.91
2023-03-02T09:21:15.211Z,3.86
2023-03-02T09:22:15.186Z,3.87
2023-03-02T09:23:15.169Z,3.95
2023-03-02T09:24:15.174Z,3.95
2023-03-02T09:25:15.178Z,3.92
2023-03-02T09:26:15.149Z,4.05
2023-03-02T09:27:15.204Z,3.96
2023-03-02T09:28:15.143Z,4.02
2023-03-02T09:29:15.143Z,4.05
2023-03-02T09:30:15.345Z,4.04
2023-03-02T09:31:15.158Z,4.04
2023-03-02T09:32:15.230Z,4.05
2023-03-02T09:33:15.172Z,4.05
2023-03-02T09:34:15.110Z,4.08
2023-03-02T09:35:15.102Z,4.12
2023-03-02T09:36:15.274Z,4.26
2023-03-02T09:37:15.122Z,4.34
2023-03-02T09:38:15.265Z,4.45
2023-03-02T09:39:15.124Z,4.41
2023-03-02T09:40:15.065Z,4.58
2023-03-02T09:41:15.101Z,4.52
2023-03-02T09:42:15.045Z,4.62
2023-03-02T09:43:15.082Z,4.59
2023-03-02T09:44:15.076Z,4.77
2023-03-02T09:45:15.040Z,4.71
2023-03-02T09:46:15.113Z,4.78
2023-03-02T09:47:16.544Z,4.75
2023-03-02T09:48:15.025Z,4.92
2023-03-02T09:49:15.019Z,4.99
2023-03-02T09:50:15.018Z,5.02
2023-03-02T09:51:15.004Z,5.23
2023-03-02T09:52:15.028Z,5.29
2023-03-02T09:53:14.996Z,5.35
2023-03-02T09:54:15.002Z,5.43
2023-03-02T09:55:14.967Z,5.51
2023-03-02T09:56:14.957Z,5.39
2023-03-02T09:57:14.981Z,5.44
2023-03-02T09:58:14.976Z,5.48
2023-03-02T09:59:14.963Z,5.64
2023-03-02T10:00:19.468Z,5.68
2023-03-02T10:01:16.707Z,5.66
2023-03-02T10:02:14.939Z,5.59
2023-03-02T10:03:17.340Z,5.62
2023-03-02T10:04:15.023Z,5.66
2023-03-02T10:05:14.921Z,5.62
2023-03-02T10:06:14.916Z,5.59
2023-03-02T10:07:14.920Z,5.65
2023-03-02T10:08:14.878Z,5.65
2023-03-02T10:09:14.880Z,5.65
2023-03-02T10:10:14.862Z,5.50
2023-03-02T10:11:14.857Z,5.51
2023-03-02T10:12:14.858Z,5.57
2023-03-02T10:13:14.876Z,5.51
2023-03-02T10:14:14.860Z,5.54
2023-03-02T10:15:14.851Z,5.61
2023-03-02T10:16:14.917Z,5.61
2023-03-02T10:17:14.845Z,5.69
2023-03-02T10:18:14.826Z,5.68
2023-03-02T10:19:14.852Z,5.75
2023-03-02T10:20:14.805Z,5.66
2023-03-02T10:21:14.819Z,5.69
2023-03-02T10:22:14.794Z,5.71
2023-03-02T10:23:14.788Z,5.69
2023-03-02T10:24:14.805Z,5.68
2023-03-02T10:25:14.781Z,5.75
2023-03-02T10:26:14.772Z,5.75
2023-03-02T10:27:14.825Z,5.66
2023-03-02T10:28:14.754Z,5.56
2023-03-02T10:29:14.750Z,5.64
2023-03-02T10:30:14.744Z,5.62
2023-03-02T10:31:14.844Z,5.56
2023-03-02T10:32:14.825Z,5.57
2023-03-02T10:33:14.766Z,5.51
2023-03-02T10:34:14.715Z,5.51
2023-03-02T10:35:14.760Z,5.57
2023-03-02T10:36:14.715Z,5.46
2023-03-02T10:37:21.953Z,5.41
2023-03-02T10:39:19.244Z,5.35
2023-03-02T10:40:18.660Z,5.33
2023-03-02T10:42:22.728Z,5.20
2023-03-02T10:43:22.631Z,5.04
2023-03-02T10:45:26.655Z,4.92
2023-03-02T10:46:26.683Z,4.90
2023-03-02T10:48:19.528Z,4.89
2023-03-02T10:49:20.982Z,4.78
2023-03-02T10:51:24.029Z,4.77
2023-03-02T10:52:23.487Z,4.70
2023-03-02T10:54:27.462Z,4.77
2023-03-02T10:55:27.458Z,4.78
2023-03-02T10:57:31.445Z,4.70
2023-03-02T10:58:31.409Z,4.77
2023-03-02T11:00:35.398Z,4.73
2023-03-02T11:01:35.450Z,4.60
2023-03-02T11:03:39.376Z,4.67
2023-03-02T11:04:39.432Z,4.63
2023-03-02T11:06:43.318Z,4.66
2023-03-02T11:07:43.308Z,4.52
2023-03-02T11:09:47.329Z,4.50
2023-03-02T11:10:47.281Z,4.53
2023-03-02T11:12:51.284Z,4.56
2023-03-02T11:13:51.269Z,4.52
2023-03-02T11:15:55.310Z,4.50
2023-03-02T11:16:55.294Z,4.56
2023-03-02T11:18:59.249Z,4.50
2023-03-02T11:19:59.208Z,4.50
2023-03-02T11:22:03.187Z,4.58
2023-03-02T11:23:03.171Z,4.55
2023-03-02T11:25:07.180Z,4.40
2023-03-02T11:26:07.125Z,4.40
2023-03-02T11:28:00.608Z,4.40
2023-03-02T11:29:00.219Z,4.44
2023-03-02T11:31:04.326Z,4.48
2023-03-02T11:32:04.250Z,4.42
2023-03-02T11:34:17.256Z,4.45
2023-03-02T11:35:08.150Z,4.40
2023-03-02T11:37:12.184Z,4.40
2023-03-02T11:38:12.115Z,4.31
2023-03-02T11:39:12.120Z,4.41
2023-03-02T11:40:12.113Z,4.48
2023-03-02T11:41:12.105Z,4.52
2023-03-02T11:42:12.116Z,4.41
2023-03-02T11:43:12.083Z,4.42
2023-03-02T11:44:12.081Z,4.38
2023-03-02T11:45:12.666Z,4.42
2023-03-02T11:46:21.575Z,4.42
2023-03-02T11:47:12.127Z,4.42
2023-03-02T11:48:12.095Z,4.38
2023-03-02T11:49:12.044Z,4.44
2023-03-02T11:50:12.033Z,4.42
2023-03-02T11:51:12.020Z,4.40
2023-03-02T11:52:12.018Z,4.40
2023-03-02T11:53:12.167Z,4.42
2023-03-02T11:54:11.999Z,4.42
2023-03-02T11:55:11.996Z,4.44
2023-03-02T11:56:11.981Z,4.50
2023-03-02T11:57:11.976Z,4.48
2023-03-02T11:58:11.986Z,4.41
2023-03-02T11:59:11.960Z,4.42
2023-03-02T12:00:11.964Z,4.53
2023-03-02T12:01:11.946Z,4.53
2023-03-02T12:02:11.988Z,4.49
2023-03-02T12:03:11.927Z,4.53
2023-03-02T12:04:11.936Z,4.55
2023-03-02T12:05:12.000Z,4.62
2023-03-02T12:06:11.913Z,4.66
2023-03-02T12:07:11.925Z,4.62
2023-03-02T12:08:11.894Z,4.59
2023-03-02T12:09:11.960Z,4.56
2023-03-02T12:10:11.895Z,4.68
2023-03-02T12:11:11.865Z,4.66
2023-03-02T12:12:11.859Z,4.60
2023-03-02T12:13:11.914Z,4.67
2023-03-02T12:14:11.848Z,4.70
2023-03-02T12:15:11.860Z,4.70
2023-03-02T12:16:11.907Z,4.68
2023-03-02T12:17:11.840Z,4.75
2023-03-02T12:18:11.826Z,4.74
2023-03-02T12:19:11.829Z,4.78
2023-03-02T12:20:11.809Z,4.77
2023-03-02T12:21:11.796Z,4.78
2023-03-02T12:22:11.795Z,4.77
2023-03-02T12:23:11.782Z,4.75
2023-03-02T12:24:11.782Z,4.80
2023-03-02T12:25:11.768Z,4.74
2023-03-02T12:26:11.775Z,4.75
2023-03-02T12:27:11.777Z,4.77
2023-03-02T12:28:11.740Z,4.84
2023-03-02T12:29:11.923Z,4.80
2023-03-02T12:30:11.794Z,4.75
2023-03-02T12:31:11.822Z,4.78
2023-03-02T12:32:11.770Z,4.78
2023-03-02T12:33:11.716Z,4.78
2023-03-02T12:34:11.731Z,4.77
2023-03-02T12:35:11.700Z,4.82
2023-03-02T12:36:11.712Z,4.73
2023-03-02T12:37:11.680Z,4.92
2023-03-02T12:38:11.768Z,4.97
2023-03-02T12:39:11.668Z,4.96
2023-03-02T12:40:11.719Z,5.05
2023-03-02T12:41:11.649Z,4.96
2023-03-02T12:42:11.672Z,5.04
2023-03-02T12:43:11.705Z,5.05
2023-03-02T12:44:11.667Z,5.04
2023-03-02T12:45:11.666Z,5.11
2023-03-02T12:46:11.683Z,5.02
2023-03-02T12:47:11.779Z,5.08
2023-03-02T12:48:11.629Z,5.11
2023-03-02T12:49:12.429Z,5.05
2023-03-02T12:50:11.579Z,5.15
2023-03-02T12:51:11.615Z,5.10
2023-03-02T12:52:11.635Z,5.08
2023-03-02T12:53:11.569Z,5.07
2023-03-02T12:54:11.567Z,5.14
2023-03-02T12:55:11.565Z,5.10
2023-03-02T12:56:11.629Z,5.12
2023-03-02T12:57:11.597Z,5.17
2023-03-02T12:58:11.537Z,5.17
2023-03-02T12:59:11.524Z,5.14
2023-03-02T13:00:11.534Z,5.14
2023-03-02T13:01:11.641Z,5.20
2023-03-02T13:02:11.547Z,5.23
2023-03-02T13:03:11.495Z,5.14
2023-03-02T13:04:11.542Z,5.25
2023-03-02T13:05:11.476Z,5.18
2023-03-02T13:06:11.460Z,5.26
2023-03-02T13:07:11.463Z,5.32
2023-03-02T13:08:11.526Z,5.30
2023-03-02T13:09:11.445Z,5.41
2023-03-02T13:10:11.465Z,5.35
2023-03-02T13:11:11.470Z,5.35
2023-03-02T13:12:11.425Z,5.35
2023-03-02T13:13:11.469Z,5.38
2023-03-02T13:14:11.406Z,5.30
2023-03-02T13:15:11.418Z,5.38
2023-03-02T13:16:11.414Z,5.33
2023-03-02T13:17:11.389Z,5.36
2023-03-02T13:18:12.221Z,5.35
2023-03-02T13:19:11.388Z,5.32
2023-03-02T13:20:11.370Z,5.33
2023-03-02T13:21:11.445Z,5.51
2023-03-02T13:22:11.430Z,5.47
2023-03-02T13:23:11.358Z,5.47
2023-03-02T13:24:12.420Z,5.38
2023-03-02T13:25:11.344Z,5.41
2023-03-02T13:26:11.324Z,5.39
2023-03-02T13:27:11.354Z,5.38
2023-03-02T13:28:11.343Z,5.44
2023-03-02T13:29:11.298Z,5.43
2023-03-02T13:30:11.296Z,5.41
2023-03-02T13:31:11.369Z,5.38
2023-03-02T13:32:11.285Z,5.39
2023-03-02T13:33:11.268Z,5.53
2023-03-02T13:34:11.268Z,5.36
2023-03-02T13:35:11.258Z,5.38
2023-03-02T13:36:11.246Z,5.39
2023-03-02T13:37:11.247Z,5.43
2023-03-02T13:38:11.250Z,5.39
2023-03-02T13:39:11.235Z,5.41
2023-03-02T13:40:11.214Z,5.33
2023-03-02T13:41:11.220Z,5.41
2023-03-02T13:42:11.208Z,5.30
2023-03-02T13:43:11.197Z,5.36
2023-03-02T13:44:11.187Z,5.47
2023-03-02T13:45:11.207Z,5.36
2023-03-02T13:46:11.241Z,5.41
2023-03-02T13:47:11.176Z,5.44
2023-03-02T13:48:11.163Z,5.44
2023-03-02T13:49:11.849Z,5.50
2023-03-02T13:50:11.171Z,5.41
2023-03-02T13:51:11.144Z,5.36
2023-03-02T13:52:11.140Z,5.41
2023-03-02T13:53:11.163Z,5.53